首页
METAR-TAF:

METAR-TAF

机场 :

Telluride Regional Airport

特柳賴德, 科羅拉多州, 美国

纬度: 37-57-14N, 经度: 107-54-31W, 海拔: 2767米

当前天气观测

该预报发布于27分钟前的00:35 UTC
风速6节,风向西转西北,有时为16节阵风
温度 25°C
湿度 7%
气压 1030 hPa
能見度: 16.1公里
散云层高于12000英尺

METAR: KTEX 130035Z AUTO 29006G16KT 10SM SCT120 25/M14 A3042 RMK AO2

时间: 19:02 (01:02 UTC)

预报

该预报发布于1小时和42分钟前的23:20 UTC
预报有效从13日的 00点(UTC)到 13日的 24点(UTC)
风速12节,风向西,有时为19节阵风
能見度: 10公里
散云层高于12000英尺
从 13日的 0400点(UTC)
风速6节,风向东南
能見度: 10公里
少量云层高于11000英尺
从 13日的 1700点(UTC)
风速9节,风向西,有时为19节阵风
能見度: 10公里
少量云层高于25000英尺

TAF: KTEX 122320Z 1300/1324 28012G19KT P6SM SCT120 FM130400 14006KT P6SM FEW110 FM131700 26009G19KT P6SM FEW250

超过4000个机场的气象观测和天气预报(METAR&TAF报告)。

可查询的气象台以黄色和红色小点在地图上表示。

将鼠标移到小点上方,可查看气象台名称。

然后点击查看天气观测和预报。

如需切换地图:点击带黑十字的绿色按钮放大地图;点击带横线的绿色按钮缩小地图;或者点击绿色箭头查看邻近地区的地图。


METAR-TAF: